Aeroporto :
LOGIN :

Iscrizione | Disclaimer

   EN    FR    IT 

 










Sommario :    VFR   VFR Marginale   IFR   IFR Intensivo   IFR Molto Intensivo
Visibilità : 
Base nubi : 
>= 8 km
>= 3000ft
5 / 8 km
1000 / 3000 ft
1500m / 5 km
500 / 1000 ft
800 / 1500m
200 / 500 ft
< 800m
< 200 ft
Simboli :   Temporali  Nebbia  Neve Forte  Precipitazioni Forti  Vento > 20 kt
SIGMETs :   Varie  Temporali  Ghiacco  Turbolenza  Onda orograficha  Ceneri Vulcaniche






- Altitudine del aeroporto : 157 ft


LESB - Son Bonet

ULTIMO METAR :
  • 020730Z AUTO 26003KT 230V290 CAVOK 12/07 Q1010

METARs OBSOLETI :
  • 020700Z AUTO 25006KT CAVOK 10/06 Q1010
  • 020630Z AUTO 25007KT CAVOK 11/06 Q1010
  • 020600Z AUTO 29005KT CAVOK 07/05 Q1010
  • 020530Z AUTO VRB02KT CAVOK 06/05 Q1010
  • 020500Z AUTO VRB02KT CAVOK 06/05 Q1011
  • 020430Z AUTO 36003KT 310V030 CAVOK 06/05 Q1011
  • 012100Z AUTO 05003KT CAVOK 09/03 Q1014
  • 020400Z AUTO 36003KT 290V030 CAVOK 06/05 Q1011
  • 020330Z AUTO 03004KT 010V070 CAVOK 06/05 Q1011
  • 020300Z AUTO 02004KT 330V040 CAVOK 06/05 Q1011

TAF N/A



MetMap, La meteo Aeronautica in un colpo d'occhio ! - Copyright ORBIFLY Dicembre 2007 - Disclaimer

ORBIFLY MET'MAP TEAM :

Programmazione e sviluppo : Alexandra Zaïnal
Concezione : Baudouin d'Aumeries
Supporto tecnico e logistico : Manuel Goepfert
Aiuto : Marc-Olivier Méhu
Aiuto per la traduzione : Arnaldo La Scala




FONTI E CREDITI :

   NOAA